createdAt,value
2022-12-18T00:01:36.065Z,102244.63
2022-12-18T00:04:09.002Z,102234.16
2022-12-18T00:06:36.189Z,102235.94
2022-12-18T00:09:03.914Z,102236.84
2022-12-18T00:11:31.665Z,102229.00
2022-12-18T00:14:00.018Z,102233.38
2022-12-18T00:16:27.743Z,102234.31
2022-12-18T00:18:59.565Z,102242.13
2022-12-18T00:21:26.943Z,102242.13
2022-12-18T00:23:53.380Z,102232.59
2022-12-18T00:26:22.933Z,102238.69
2022-12-18T00:28:50.511Z,102236.97
2022-12-18T00:31:20.007Z,102243.94
2022-12-18T00:33:46.939Z,102237.88
2022-12-18T00:36:18.231Z,102243.09
2022-12-18T00:38:45.566Z,102233.53
2022-12-18T00:41:13.981Z,102233.53
2022-12-18T00:43:41.271Z,102227.47
2022-12-18T00:46:07.994Z,102234.44
2022-12-18T00:48:34.522Z,102227.47
2022-12-18T00:51:00.864Z,102224.84
2022-12-18T00:53:27.185Z,102215.28
2022-12-18T00:55:53.533Z,102217.03
2022-12-18T00:58:19.892Z,102216.16
2022-12-18T01:00:46.331Z,102223.13
2022-12-18T01:03:16.093Z,102221.41
2022-12-18T01:05:42.521Z,102223.16
2022-12-18T01:08:09.011Z,102226.66
2022-12-18T01:10:35.322Z,102237.09
2022-12-18T01:13:01.671Z,102230.13
2022-12-18T01:15:28.032Z,102229.28
2022-12-18T01:17:54.541Z,102224.06
2022-12-18T01:20:21.539Z,102218.81
2022-12-18T01:22:47.848Z,102217.97
2022-12-18T01:25:14.186Z,102216.25
2022-12-18T01:27:40.563Z,102213.59
2022-12-18T01:30:07.586Z,102214.47
2022-12-18T01:32:34.340Z,102225.81
2022-12-18T01:35:00.695Z,102225.78
2022-12-18T01:37:27.067Z,102233.59
2022-12-18T01:39:55.141Z,102217.94
2022-12-18T01:42:22.109Z,102222.25
2022-12-18T01:45:04.825Z,102229.22
2022-12-18T01:47:36.622Z,102225.69
2022-12-18T01:50:11.207Z,102226.56
2022-12-18T01:52:42.451Z,102230.94
2022-12-18T01:55:10.722Z,102232.66
2022-12-18T01:57:38.705Z,102239.59
2022-12-18T02:00:12.225Z,102243.97
2022-12-18T02:02:38.895Z,102243.94
2022-12-18T02:05:06.066Z,102242.19
2022-12-18T02:07:50.527Z,102237.81
2022-12-18T02:10:23.064Z,102239.56
2022-12-18T02:13:03.738Z,102241.28
2022-12-18T02:15:30.123Z,102229.06
2022-12-18T02:18:09.886Z,102229.00
2022-12-18T02:20:38.166Z,102232.47
2022-12-18T02:23:33.716Z,102228.13
2022-12-18T02:26:06.049Z,102235.91
2022-12-18T02:28:37.749Z,102228.06
2022-12-18T02:31:09.950Z,102220.19
2022-12-18T02:33:38.308Z,102214.97
2022-12-18T02:36:06.329Z,102212.31
2022-12-18T02:38:34.537Z,102214.03
2022-12-18T02:41:01.666Z,102215.78
2022-12-18T02:43:27.968Z,102207.91
2022-12-18T02:46:00.581Z,102205.34
2022-12-18T02:48:31.354Z,102206.19
2022-12-18T02:51:09.251Z,102205.34
2022-12-18T02:53:45.950Z,102205.34
2022-12-18T02:56:27.165Z,102212.28
2022-12-18T02:59:03.032Z,102209.66
2022-12-18T03:01:34.522Z,102207.03
2022-12-18T03:04:14.656Z,102212.25
2022-12-18T03:06:45.840Z,102203.50
2022-12-18T03:09:18.906Z,102202.59
2022-12-18T03:12:10.443Z,102201.66
2022-12-18T03:14:39.201Z,102200.78
2022-12-18T03:17:13.804Z,102208.59
2022-12-18T03:19:42.256Z,102206.81
2022-12-18T03:22:10.614Z,102205.97
2022-12-18T03:24:40.385Z,102212.03
2022-12-18T03:27:12.449Z,102207.66
2022-12-18T03:29:48.587Z,102206.78
2022-12-18T03:32:26.752Z,102210.25
2022-12-18T03:34:57.413Z,102210.25
2022-12-18T03:37:26.573Z,102215.47
2022-12-18T03:39:53.004Z,102210.25
2022-12-18T03:42:32.341Z,102206.72
2022-12-18T03:45:01.712Z,102212.81
2022-12-18T03:47:52.432Z,102201.50
2022-12-18T03:50:30.301Z,102209.34
2022-12-18T03:53:20.417Z,102204.06
2022-12-18T03:55:48.932Z,102211.91
2022-12-18T03:58:20.348Z,102209.25
2022-12-18T04:00:49.940Z,102199.66
2022-12-18T04:03:17.654Z,102195.31
2022-12-18T04:05:45.105Z,102204.03
2022-12-18T04:08:11.584Z,102201.38
2022-12-18T04:10:38.231Z,102203.13
2022-12-18T04:13:04.758Z,102194.38
2022-12-18T04:15:35.478Z,102192.63
2022-12-18T04:18:02.733Z,102201.31
2022-12-18T04:20:29.133Z,102210.03
2022-12-18T04:22:55.520Z,102210.88
2022-12-18T04:25:21.839Z,102197.81
2022-12-18T04:27:48.167Z,102197.81
2022-12-18T04:30:14.473Z,102198.66
2022-12-18T04:32:40.774Z,102199.50
2022-12-18T04:35:11.342Z,102196.00
2022-12-18T04:37:37.662Z,102195.97
2022-12-18T04:40:04.389Z,102191.56
2022-12-18T04:42:30.717Z,102193.28
2022-12-18T04:44:57.021Z,102193.28
2022-12-18T04:47:23.386Z,102188.00
2022-12-18T04:49:49.717Z,102176.63
2022-12-18T04:52:16.053Z,102178.31
2022-12-18T04:54:42.424Z,102176.53
2022-12-18T04:57:08.751Z,102186.03
2022-12-18T04:59:35.093Z,102176.41
2022-12-18T05:02:01.468Z,102182.47
2022-12-18T05:04:28.061Z,102180.66
2022-12-18T05:06:54.420Z,102186.72
2022-12-18T05:09:21.679Z,102187.53
2022-12-18T05:11:48.074Z,102177.88
2022-12-18T05:14:14.413Z,102184.81
2022-12-18T05:16:40.983Z,102190.00
2022-12-18T05:19:07.302Z,102185.56
2022-12-18T05:21:33.661Z,102182.94
2022-12-18T05:24:00.249Z,102182.81
2022-12-18T05:26:26.571Z,102184.56
2022-12-18T05:28:52.879Z,102179.28
2022-12-18T05:31:19.268Z,102179.22
2022-12-18T05:33:45.828Z,102173.09
2022-12-18T05:36:12.622Z,102175.69
2022-12-18T05:38:40.211Z,102174.78
2022-12-18T05:41:06.995Z,102173.88
2022-12-18T05:43:35.819Z,102168.63
2022-12-18T05:46:06.810Z,102181.66
2022-12-18T05:48:33.320Z,102184.28
2022-12-18T05:51:06.381Z,102194.75
2022-12-18T05:53:33.121Z,102197.38
2022-12-18T05:56:05.122Z,102201.72
2022-12-18T05:58:32.444Z,102208.69
2022-12-18T06:00:59.085Z,102211.31
2022-12-18T06:03:30.682Z,102212.19
2022-12-18T06:05:59.994Z,102211.31
2022-12-18T06:08:26.410Z,102212.19
2022-12-18T06:10:53.556Z,102205.25
2022-12-18T06:13:20.881Z,102219.25
2022-12-18T06:15:47.244Z,102217.53
2022-12-18T06:18:13.590Z,102209.69
2022-12-18T06:20:42.213Z,102205.38
2022-12-18T06:23:09.589Z,102209.75
2022-12-18T06:25:39.207Z,102213.28
2022-12-18T06:28:05.766Z,102219.41
2022-12-18T06:30:32.177Z,102223.81
2022-12-18T06:32:58.502Z,102235.19
2022-12-18T06:35:24.836Z,102236.03
2022-12-18T06:37:54.623Z,102228.19
2022-12-18T06:40:21.021Z,102228.19
2022-12-18T06:42:47.487Z,102232.56
2022-12-18T06:45:16.885Z,102229.94
2022-12-18T06:47:43.248Z,102238.66
2022-12-18T06:50:09.833Z,102241.28
2022-12-18T06:52:36.344Z,102238.66
2022-12-18T06:55:02.864Z,102242.16
2022-12-18T06:57:29.468Z,102243.91
2022-12-18T06:59:55.831Z,102236.91
2022-12-18T07:02:22.249Z,102234.28
2022-12-18T07:04:51.823Z,102230.81
2022-12-18T07:07:18.195Z,102233.38
2022-12-18T07:09:44.527Z,102220.28
2022-12-18T07:12:10.882Z,102215.91
2022-12-18T07:14:37.244Z,102219.41
2022-12-18T07:17:03.679Z,102221.13
2022-12-18T07:19:30.489Z,102215.91
2022-12-18T07:21:57.468Z,102212.38
2022-12-18T07:24:23.775Z,102219.38
2022-12-18T07:26:50.225Z,102210.66
2022-12-18T07:29:16.742Z,102218.50
2022-12-18T07:31:43.176Z,102209.75
2022-12-18T07:34:14.477Z,102217.59
2022-12-18T07:36:40.931Z,102211.44
2022-12-18T07:39:07.435Z,102207.06
2022-12-18T07:41:34.094Z,102200.91
2022-12-18T07:44:00.384Z,102208.72
2022-12-18T07:46:26.696Z,102208.69
2022-12-18T07:48:53.061Z,102203.41
2022-12-18T07:51:23.082Z,102201.56
2022-12-18T07:53:52.277Z,102191.91
2022-12-18T07:56:29.125Z,102185.69
2022-12-18T07:58:57.236Z,102187.31
2022-12-18T08:01:24.344Z,102185.47
2022-12-18T08:03:52.494Z,102174.88
2022-12-18T08:06:19.163Z,102171.25
2022-12-18T08:08:45.521Z,102169.34
2022-12-18T08:11:12.600Z,102165.72
2022-12-18T08:13:39.315Z,102170.78
2022-12-18T08:16:08.138Z,102161.84
2022-12-18T08:18:36.552Z,102159.03
2022-12-18T08:21:15.931Z,102174.56
2022-12-18T08:23:43.626Z,102180.47
2022-12-18T08:26:11.224Z,102186.38
2022-12-18T08:28:38.437Z,102187.88
2022-12-18T08:31:05.447Z,102188.50
2022-12-18T08:33:32.348Z,102196.16
2022-12-18T08:36:03.142Z,102195.91
2022-12-18T08:38:29.522Z,102192.19
2022-12-18T08:41:03.118Z,102198.97
2022-12-18T08:43:48.162Z,102197.88
2022-12-18T08:46:18.894Z,102180.97
2022-12-18T08:48:45.303Z,102174.66
2022-12-18T08:51:11.869Z,102175.31
2022-12-18T08:53:38.982Z,102165.47
2022-12-18T08:56:06.462Z,102162.56
2022-12-18T08:58:32.822Z,102162.38
2022-12-18T09:01:07.687Z,102157.72
2022-12-18T09:03:34.246Z,102156.59
2022-12-18T09:06:00.644Z,102147.63
2022-12-18T09:08:27.761Z,102145.63
2022-12-18T09:10:54.398Z,102141.88
2022-12-18T09:13:21.281Z,102139.97
2022-12-18T09:15:51.485Z,102146.78
2022-12-18T09:18:19.494Z,102149.22
2022-12-18T09:20:46.373Z,102150.78
2022-12-18T09:23:13.489Z,102145.31
2022-12-18T09:25:40.486Z,102160.03
2022-12-18T09:28:15.980Z,102159.78
2022-12-18T09:30:43.523Z,102162.97
2022-12-18T09:33:09.920Z,102165.44
2022-12-18T09:35:41.499Z,102161.69
2022-12-18T09:38:12.214Z,102161.50
2022-12-18T09:40:50.937Z,102158.63
2022-12-18T09:43:40.471Z,102174.22
2022-12-18T09:46:12.960Z,102177.44
2022-12-18T09:48:43.543Z,102181.66
2022-12-18T09:51:21.192Z,102175.28
2022-12-18T09:53:54.602Z,102170.66
2022-12-18T09:56:23.858Z,102170.41
2022-12-18T09:58:59.058Z,102159.63
2022-12-18T10:01:34.056Z,102158.50
2022-12-18T10:04:06.688Z,102140.72
2022-12-18T10:06:39.149Z,102124.59
2022-12-18T10:09:33.641Z,102107.59
2022-12-18T10:12:17.021Z,102094.03
2022-12-18T10:14:52.642Z,102092.03
2022-12-18T10:17:28.024Z,102100.47
2022-12-18T10:20:00.429Z,102089.63
2022-12-18T10:22:40.263Z,102088.56
2022-12-18T10:25:27.838Z,102075.09
2022-12-18T10:27:58.981Z,102092.47
2022-12-18T10:30:26.529Z,102089.59
2022-12-18T10:32:53.299Z,102093.00
2022-12-18T10:35:23.350Z,102101.59
2022-12-18T10:38:12.741Z,102099.66
2022-12-18T10:41:03.354Z,102095.09
2022-12-18T10:43:32.558Z,102083.53
2022-12-18T10:46:01.057Z,102069.34
2022-12-18T10:48:28.620Z,102062.28
2022-12-18T10:51:13.328Z,102062.22
2022-12-18T10:53:43.864Z,102060.31
2022-12-18T10:56:11.693Z,102051.44
2022-12-18T10:58:40.389Z,102036.41
2022-12-18T11:01:18.866Z,102024.00
2022-12-18T11:03:47.679Z,102021.22
2022-12-18T11:06:25.486Z,102033.44
2022-12-18T11:09:00.585Z,102028.97
2022-12-18T11:11:27.498Z,102035.91
2022-12-18T11:14:17.580Z,102033.97
2022-12-18T11:17:03.212Z,102032.09
2022-12-18T11:19:41.899Z,102024.88
2022-12-18T11:22:28.857Z,102024.69
2022-12-18T11:28:30.369Z,102019.81
2022-12-18T11:31:20.001Z,102014.25
2022-12-18T11:34:26.799Z,101993.75
2022-12-18T11:36:50.615Z,101980.28
2022-12-18T11:39:22.501Z,101980.00
2022-12-18T11:42:34.119Z,101975.28
2022-12-18T11:45:04.530Z,101977.72
2022-12-18T11:48:05.325Z,101968.59
2022-12-18T11:50:52.319Z,101966.59
2022-12-18T11:53:19.858Z,101961.00
2022-12-18T11:56:03.025Z,101965.16
2022-12-18T11:58:50.697Z,101972.88
2022-12-18T12:01:26.370Z,101970.88
2022-12-18T12:03:56.080Z,101969.81
2022-12-18T12:06:52.598Z,101958.16
2022-12-18T12:09:50.892Z,101963.22
2022-12-18T12:12:17.276Z,101949.84
2022-12-18T12:14:59.463Z,101943.53
2022-12-18T12:17:53.921Z,101938.09
2022-12-18T12:20:40.633Z,101948.53
2022-12-18T12:23:12.362Z,101944.88
2022-12-18T12:25:51.468Z,101942.19
2022-12-18T12:28:30.002Z,101951.75
2022-12-18T12:31:22.034Z,101958.69
2022-12-18T12:34:01.000Z,101945.31
2022-12-18T12:36:37.516Z,101941.66
2022-12-18T12:39:10.807Z,101931.75
2022-12-18T12:42:05.705Z,101922.91
2022-12-18T12:44:57.115Z,101904.09
2022-12-18T12:47:36.676Z,101894.22
2022-12-18T12:50:12.771Z,101894.06
2022-12-18T12:52:53.945Z,101893.91
2022-12-18T12:55:26.732Z,101887.59
2022-12-18T12:58:04.590Z,101881.28
2022-12-18T13:00:40.668Z,101882.09
2022-12-18T13:03:30.039Z,101879.28
2022-12-18T13:06:02.663Z,101880.91
2022-12-18T13:08:33.910Z,101880.84
2022-12-18T13:11:20.372Z,101868.34
2022-12-18T13:13:53.093Z,101869.06
2022-12-18T13:16:23.700Z,101862.75
2022-12-18T13:18:55.555Z,101860.84
2022-12-18T13:21:27.999Z,101847.59
2022-12-18T13:23:56.693Z,101847.47
2022-12-18T13:26:29.012Z,101840.19
2022-12-18T13:28:58.004Z,101841.91
2022-12-18T13:31:30.687Z,101838.34
2022-12-18T13:34:26.283Z,101833.88
2022-12-18T13:36:54.738Z,101830.16
2022-12-18T13:39:28.637Z,101835.34
2022-12-18T13:42:05.643Z,101826.56
2022-12-18T13:44:40.207Z,101830.16
2022-12-18T13:47:35.501Z,101830.16
2022-12-18T13:50:13.554Z,101827.50
2022-12-18T13:52:40.839Z,101821.41
2022-12-18T13:55:17.099Z,101825.88
2022-12-18T13:57:43.494Z,101807.38
2022-12-18T14:00:26.105Z,101821.59
2022-12-18T14:02:52.767Z,101812.84
2022-12-18T14:05:28.023Z,101822.59
2022-12-18T14:07:56.122Z,101820.97
2022-12-18T14:10:42.238Z,101814.88
2022-12-18T14:13:11.504Z,101803.50
2022-12-18T14:15:48.590Z,101799.16
2022-12-18T14:18:20.463Z,101797.50
2022-12-18T14:20:52.521Z,101802.88
2022-12-18T14:23:48.604Z,101800.41
2022-12-18T14:26:34.053Z,101791.59
2022-12-18T14:29:18.254Z,101784.66
2022-12-18T14:31:44.994Z,101790.03
2022-12-18T14:34:18.099Z,101784.84
2022-12-18T14:36:56.193Z,101778.75
2022-12-18T14:39:23.226Z,101776.16
2022-12-18T14:41:50.830Z,101778.03
2022-12-18T14:44:17.236Z,101762.22
2022-12-18T14:46:46.890Z,101768.47
2022-12-18T14:49:22.068Z,101764.03
2022-12-18T14:52:03.569Z,101758.81
2022-12-18T14:54:32.218Z,101760.59
2022-12-18T14:57:18.934Z,101758.03
2022-12-18T14:59:45.516Z,101751.03
2022-12-18T15:02:22.934Z,101761.63
2022-12-18T15:05:01.851Z,101758.19
2022-12-18T15:07:40.165Z,101745.88
2022-12-18T15:10:15.521Z,101752.03
2022-12-18T15:12:44.204Z,101736.16
2022-12-18T15:15:39.171Z,101722.13
2022-12-18T15:18:08.528Z,101728.25
2022-12-18T15:20:53.446Z,101718.56
2022-12-18T15:23:30.736Z,101719.41
2022-12-18T15:26:02.355Z,101707.97
2022-12-18T15:28:50.613Z,101707.84
2022-12-18T15:31:17.900Z,101709.59
2022-12-18T15:33:47.011Z,101703.50
2022-12-18T15:36:17.598Z,101701.63
2022-12-18T15:38:53.312Z,101697.25
2022-12-18T15:41:24.754Z,101692.81
2022-12-18T15:43:53.130Z,101692.75
2022-12-18T15:46:22.432Z,101683.00
2022-12-18T15:48:59.767Z,101686.50
2022-12-18T15:51:36.528Z,101682.06
2022-12-18T15:54:05.760Z,101677.63
2022-12-18T15:56:50.804Z,101669.69
2022-12-18T15:59:19.717Z,101659.94
2022-12-18T16:01:49.217Z,101663.44
2022-12-18T16:04:18.191Z,101658.06
2022-12-18T16:07:13.177Z,101658.91
2022-12-18T16:09:30.884Z,101655.31
2022-12-18T16:11:57.214Z,101653.44
2022-12-18T16:14:28.909Z,101644.53
2022-12-18T16:16:58.866Z,101644.53
2022-12-18T16:19:25.935Z,101637.38
2022-12-18T16:21:55.770Z,101641.75
2022-12-18T16:24:25.058Z,101628.50
2022-12-18T16:26:53.141Z,101630.22
2022-12-18T16:29:27.766Z,101624.84
2022-12-18T16:31:58.600Z,101635.34
2022-12-18T16:34:29.037Z,101631.75
2022-12-18T16:37:05.166Z,101628.16
2022-12-18T16:39:32.902Z,101628.16
2022-12-18T16:41:59.822Z,101625.50
2022-12-18T16:44:28.322Z,101619.25
2022-12-18T16:46:54.777Z,101608.66
2022-12-18T16:49:22.314Z,101593.63
2022-12-18T16:51:48.762Z,101606.00
2022-12-18T16:54:19.016Z,101604.25
2022-12-18T16:56:49.685Z,101613.97
2022-12-18T16:59:16.185Z,101627.22
2022-12-18T17:01:42.573Z,101627.22
2022-12-18T17:04:09.528Z,101621.91
2022-12-18T17:06:40.342Z,101615.59
2022-12-18T17:09:09.191Z,101621.84
2022-12-18T17:11:36.262Z,101609.53
2022-12-18T17:14:14.274Z,101606.78
2022-12-18T17:16:40.860Z,101594.50
2022-12-18T17:19:10.928Z,101602.44
2022-12-18T17:21:42.495Z,101603.28
2022-12-18T17:24:08.829Z,101590.09
2022-12-18T17:26:35.146Z,101590.09
2022-12-18T17:29:01.485Z,101582.16
2022-12-18T17:31:29.511Z,101591.06
2022-12-18T17:33:56.729Z,101589.38
2022-12-18T17:36:23.887Z,101591.13
2022-12-18T17:38:55.789Z,101595.59
2022-12-18T17:41:23.088Z,101593.78
2022-12-18T17:43:55.690Z,101593.88
2022-12-18T17:46:22.576Z,101590.38
2022-12-18T17:48:49.110Z,101582.50
2022-12-18T17:51:16.623Z,101591.41
2022-12-18T17:53:43.927Z,101590.53
2022-12-18T17:56:16.027Z,101590.53
2022-12-18T17:58:43.511Z,101594.13
2022-12-18T18:01:13.845Z,101589.69
2022-12-18T18:03:43.216Z,101583.53
2022-12-18T18:06:10.197Z,101592.34
2022-12-18T18:08:37.060Z,101584.38
2022-12-18T18:11:27.150Z,101587.88
2022-12-18T18:14:02.924Z,101587.03
2022-12-18T18:16:33.237Z,101585.34
2022-12-18T18:19:01.843Z,101572.94
2022-12-18T18:21:29.198Z,101569.44
2022-12-18T18:23:58.681Z,101561.50
2022-12-18T18:26:26.113Z,101567.66
2022-12-18T18:28:54.976Z,101568.50
2022-12-18T18:31:26.316Z,101568.50
2022-12-18T18:33:53.117Z,101564.03
2022-12-18T18:36:19.437Z,101557.88
2022-12-18T18:38:48.547Z,101563.19
2022-12-18T18:41:15.553Z,101575.59
2022-12-18T18:43:42.207Z,101577.38
2022-12-18T18:46:12.446Z,101572.09
2022-12-18T18:48:40.147Z,101572.94
2022-12-18T18:51:12.159Z,101567.72
2022-12-18T18:53:44.394Z,101574.81
2022-12-18T18:59:00.000Z,101566.97
2022-12-18T19:01:26.755Z,101577.56
2022-12-18T19:03:54.235Z,101581.13
2022-12-18T19:06:24.221Z,101581.13
2022-12-18T19:08:51.336Z,101578.50
2022-12-18T19:11:36.931Z,101575.00
2022-12-18T19:14:05.873Z,101582.88
2022-12-18T19:16:33.688Z,101577.63
2022-12-18T19:19:02.230Z,101579.44
2022-12-18T19:21:29.051Z,101583.88
2022-12-18T19:24:05.275Z,101589.19
2022-12-18T19:26:31.825Z,101582.16
2022-12-18T19:29:05.758Z,101593.63
2022-12-18T19:31:36.159Z,101588.41
2022-12-18T19:34:05.223Z,101599.00
2022-12-18T19:36:32.771Z,101595.50
2022-12-18T19:39:00.926Z,101599.06
2022-12-18T19:41:31.375Z,101597.38
2022-12-18T19:43:59.784Z,101593.03
2022-12-18T19:46:26.303Z,101580.72
2022-12-18T19:48:52.720Z,101578.06
2022-12-18T19:51:24.729Z,101588.66
2022-12-18T19:53:57.867Z,101594.91
2022-12-18T19:56:26.815Z,101587.88
2022-12-18T19:58:53.880Z,101592.31
2022-12-18T20:01:22.299Z,101589.69
2022-12-18T20:03:52.419Z,101591.47
2022-12-18T20:06:34.622Z,101592.44
2022-12-18T20:09:06.679Z,101591.53
2022-12-18T20:11:41.441Z,101583.69
2022-12-18T20:14:12.522Z,101592.56
2022-12-18T20:16:39.495Z,101590.88
2022-12-18T20:19:06.904Z,101575.94
2022-12-18T20:21:33.817Z,101585.69
2022-12-18T20:24:01.347Z,101582.16
2022-12-18T20:26:28.050Z,101576.00
2022-12-18T20:28:55.151Z,101580.44
2022-12-18T20:31:22.157Z,101577.88
2022-12-18T20:33:49.948Z,101580.53
2022-12-18T20:36:21.337Z,101577.03
2022-12-18T20:38:51.919Z,101572.56
2022-12-18T20:41:22.636Z,101578.75
2022-12-18T20:43:49.283Z,101572.56
2022-12-18T20:46:17.258Z,101566.44
2022-12-18T20:48:44.715Z,101569.00
2022-12-18T20:51:13.430Z,101574.31
2022-12-18T20:53:41.872Z,101566.25
2022-12-18T20:56:15.150Z,101570.63
2022-12-18T20:58:46.621Z,101568.84
2022-12-18T21:01:16.250Z,101559.94
2022-12-18T21:03:44.407Z,101565.16
2022-12-18T21:06:10.876Z,101569.50
2022-12-18T21:08:37.603Z,101569.50
2022-12-18T21:11:36.067Z,101579.09
2022-12-18T21:14:04.245Z,101569.34
2022-12-18T21:16:31.269Z,101573.72
2022-12-18T21:18:57.957Z,101573.72
2022-12-18T21:21:26.867Z,101579.78
2022-12-18T21:23:54.108Z,101586.78
2022-12-18T21:26:23.009Z,101577.88
2022-12-18T21:28:58.038Z,101576.97
2022-12-18T21:31:27.288Z,101581.31
2022-12-18T21:33:58.359Z,101589.25
2022-12-18T21:36:29.572Z,101578.59
2022-12-18T21:38:56.443Z,101583.03
2022-12-18T21:41:43.560Z,101572.44
2022-12-18T21:44:15.690Z,101569.69
2022-12-18T21:46:48.857Z,101568.84
2022-12-18T21:49:21.201Z,101570.53
2022-12-18T21:51:49.557Z,101569.69
2022-12-18T21:54:16.650Z,101568.00
2022-12-18T21:56:49.802Z,101560.91
2022-12-18T21:59:19.097Z,101563.53
2022-12-18T22:01:45.818Z,101556.53
2022-12-18T22:04:12.931Z,101568.84
2022-12-18T22:06:42.513Z,101564.41
2022-12-18T22:09:11.264Z,101561.75
2022-12-18T22:11:38.293Z,101553.72
2022-12-18T22:14:04.922Z,101560.78
2022-12-18T22:16:31.247Z,101551.94
2022-12-18T22:18:57.596Z,101558.91
2022-12-18T22:21:29.884Z,101557.88
2022-12-18T22:24:02.114Z,101554.31
2022-12-18T22:26:35.063Z,101543.63
2022-12-18T22:29:23.846Z,101549.69
2022-12-18T22:31:50.487Z,101533.72
2022-12-18T22:34:21.922Z,101523.03
2022-12-18T22:36:49.589Z,101531.81
2022-12-18T22:39:24.360Z,101525.59
2022-12-18T22:41:51.991Z,101515.91
2022-12-18T22:44:18.650Z,101527.28
2022-12-18T22:46:49.401Z,101529.09
2022-12-18T22:49:27.129Z,101528.13
2022-12-18T22:51:54.438Z,101524.56
2022-12-18T22:54:21.961Z,101529.75
2022-12-18T22:56:48.458Z,101519.09
2022-12-18T22:59:19.869Z,101522.41
2022-12-18T23:01:47.597Z,101522.41
2022-12-18T23:04:15.676Z,101510.88
2022-12-18T23:06:44.854Z,101511.72
2022-12-18T23:09:15.245Z,101506.31
2022-12-18T23:11:41.794Z,101501.97
2022-12-18T23:14:08.259Z,101501.97
2022-12-18T23:16:35.311Z,101496.66
2022-12-18T23:19:03.027Z,101487.88
2022-12-18T23:21:29.419Z,101481.72
2022-12-18T23:23:57.087Z,101471.97
2022-12-18T23:26:25.013Z,101481.63
2022-12-18T23:28:53.010Z,101475.47
2022-12-18T23:31:25.335Z,101464.03
2022-12-18T23:33:53.266Z,101465.81
2022-12-18T23:36:20.760Z,101468.47
2022-12-18T23:38:52.535Z,101459.56
2022-12-18T23:41:21.934Z,101445.47
2022-12-18T23:43:48.902Z,101439.31
2022-12-18T23:46:18.212Z,101445.47
2022-12-18T23:48:45.167Z,101433.06
2022-12-18T23:51:13.098Z,101427.75
2022-12-18T23:53:40.245Z,101427.75
2022-12-18T23:56:08.475Z,101425.13
2022-12-18T23:58:35.838Z,101419.75
